Time;durP1;ratioP1;P1;durP2;ratioP2;P2;SDS_P1;SDS_P2;PMS_P1;PMS_P2;Temp;Humidity;BMP_temperature;BMP_pressure;BME280_temperature;BME280_humidity;BME280_pressure;Samples;Min_cycle;Max_cycle;Signal;HPM_P1;HPM_P2
2022/03/12 00:01:43;;;;;;;12.93;6.80;;;0.60;1.00;;;;;;5119921;27;20572;-74
2022/03/12 00:04:10;;;;;;;14.07;7.07;;;0.60;1.00;;;;;;5117421;27;20244;-74
2022/03/12 00:06:37;;;;;;;15.30;6.77;;;0.60;1.00;;;;;;5120815;27;20206;-74
2022/03/12 00:09:05;;;;;;;15.67;7.37;;;0.50;1.00;;;;;;5122375;27;20534;-74
2022/03/12 00:11:35;;;;;;;15.10;7.03;;;0.50;1.00;;;;;;5123764;27;20257;-74
2022/03/12 00:14:03;;;;;;;18.03;7.50;;;0.50;1.00;;;;;;5122408;27;20662;-74
2022/03/12 00:16:32;;;;;;;16.20;7.67;;;0.40;1.00;;;;;;5120460;27;20205;-74
2022/03/12 00:19:02;;;;;;;16.40;7.30;;;0.40;1.00;;;;;;5122855;27;20204;-74
2022/03/12 00:21:30;;;;;;;14.37;6.87;;;0.40;2.60;;;;;;5119625;27;20207;-74
2022/03/12 00:24:00;;;;;;;15.43;7.77;;;0.50;1.00;;;;;;5129620;27;20201;-74
2022/03/12 00:26:29;;;;;;;14.43;7.13;;;0.70;1.00;;;;;;5118871;27;20205;-74
2022/03/12 00:28:57;;;;;;;14.73;7.03;;;0.80;1.00;;;;;;5125865;27;20315;-73
2022/03/12 00:31:26;;;;;;;14.07;7.00;;;0.90;1.00;;;;;;5126333;27;20203;-73
2022/03/12 00:33:53;;;;;;;15.90;7.60;;;0.80;1.00;;;;;;5133427;27;20596;-73
2022/03/12 00:36:20;;;;;;;14.00;7.63;;;0.70;1.00;;;;;;5132331;27;20204;-73
2022/03/12 00:38:47;;;;;;;14.53;7.13;;;0.60;1.00;;;;;;5134303;27;20192;-73
2022/03/12 00:41:14;;;;;;;17.37;7.83;;;0.60;1.00;;;;;;5128027;27;20197;-73
2022/03/12 00:43:41;;;;;;;12.73;7.07;;;0.50;50.10;;;;;;5132384;27;20212;-73
2022/03/12 00:46:10;;;;;;;14.13;7.23;;;0.50;17.10;;;;;;5128133;27;20204;-73
2022/03/12 00:48:38;;;;;;;15.67;7.60;;;0.50;1.00;;;;;;5133279;27;20200;-73
2022/03/12 00:51:06;;;;;;;15.17;7.90;;;0.40;16.70;;;;;;5131918;27;20196;-74
2022/03/12 00:53:34;;;;;;;15.30;7.27;;;0.40;1.00;;;;;;5133587;27;20192;-74
2022/03/12 00:56:01;;;;;;;15.50;7.23;;;0.10;99.90;;;;;;5129349;27;20216;-74
2022/03/12 00:58:28;;;;;;;15.23;8.00;;;0.00;99.90;;;;;;5129799;27;20204;-74
2022/03/12 01:00:54;;;;;;;15.13;7.30;;;0.10;99.90;;;;;;5129295;27;20196;-74
2022/03/12 01:03:23;;;;;;;14.37;7.17;;;-0.20;99.90;;;;;;5132668;27;20196;-74
2022/03/12 01:05:59;;;;;;;16.73;7.50;;;-0.20;99.90;;;;;;5124310;27;20206;-74
2022/03/12 01:08:28;;;;;;;14.97;7.50;;;-0.20;99.90;;;;;;5132375;27;20200;-74
2022/03/12 01:10:58;;;;;;;13.87;7.40;;;-0.20;99.30;;;;;;5127637;27;20556;-74
2022/03/12 01:13:25;;;;;;;15.07;7.50;;;-0.20;99.90;;;;;;5132319;27;20188;-74
2022/03/12 01:15:52;;;;;;;16.67;9.17;;;-0.40;99.90;;;;;;5122842;27;20232;-74
2022/03/12 01:18:21;;;;;;;13.40;7.00;;;-0.40;99.90;;;;;;5119626;27;20848;-74
2022/03/12 01:20:50;;;;;;;14.47;7.40;;;-0.60;99.90;;;;;;5128332;27;20197;-74
2022/03/12 01:23:18;;;;;;;13.63;6.93;;;-0.50;99.90;;;;;;5119949;27;20197;-74
2022/03/12 01:25:47;;;;;;;13.60;7.23;;;-0.40;99.90;;;;;;5131984;27;20553;-74
2022/03/12 01:28:15;;;;;;;15.27;6.77;;;-0.50;99.90;;;;;;5132617;27;20197;-74
2022/03/12 01:30:43;;;;;;;16.97;7.67;;;-0.50;99.90;;;;;;5129174;27;20201;-74
2022/03/12 01:33:10;;;;;;;14.20;7.03;;;-0.40;99.90;;;;;;5132858;27;20207;-74
2022/03/12 01:35:38;;;;;;;13.27;6.63;;;-0.40;90.00;;;;;;5131529;27;20669;-74
2022/03/12 01:38:07;;;;;;;16.53;7.73;;;-0.60;51.60;;;;;;5132857;27;20197;-74
2022/03/12 01:40:34;;;;;;;14.17;7.40;;;-0.70;99.90;;;;;;5129971;27;20203;-74
2022/03/12 01:43:01;;;;;;;13.20;7.33;;;-0.50;99.90;;;;;;5128910;27;20203;-74
2022/03/12 01:45:29;;;;;;;13.37;6.53;;;-0.70;99.90;;;;;;5125521;27;20196;-74
2022/03/12 01:47:57;;;;;;;13.80;7.07;;;-0.80;99.90;;;;;;5125492;27;20297;-74
2022/03/12 01:50:27;;;;;;;13.67;6.73;;;-0.70;99.90;;;;;;5132982;27;20287;-74
2022/03/12 01:52:58;;;;;;;11.73;6.97;;;-0.70;99.90;;;;;;5119421;27;20201;-74
2022/03/12 01:55:29;;;;;;;13.47;7.27;;;-0.80;99.90;;;;;;5120304;27;20220;-74
2022/03/12 01:57:56;;;;;;;14.33;7.57;;;-0.70;99.90;;;;;;5116117;28;20654;-74
2022/03/12 02:00:25;;;;;;;12.97;7.13;;;-0.80;99.90;;;;;;5129964;28;20572;-74
2022/03/12 02:02:54;;;;;;;15.17;7.70;;;-0.80;1.00;;;;;;5119563;28;20204;-74
2022/03/12 02:05:23;;;;;;;16.60;7.17;;;-0.70;1.00;;;;;;5130202;27;20192;-74
2022/03/12 02:07:49;;;;;;;16.03;7.30;;;-0.90;1.00;;;;;;5119819;28;20200;-74
2022/03/12 02:10:18;;;;;;;16.37;7.70;;;-1.00;1.00;;;;;;5130456;28;20196;-74
2022/03/12 02:12:46;;;;;;;23.13;8.77;;;-0.90;1.00;;;;;;5132623;27;20710;-74
2022/03/12 02:15:15;;;;;;;14.07;7.23;;;-0.70;1.00;;;;;;5128277;27;20220;-74
2022/03/12 02:17:43;;;;;;;14.63;7.70;;;-0.60;99.90;;;;;;5132450;27;20239;-74
2022/03/12 02:20:10;;;;;;;13.57;7.40;;;-0.50;99.90;;;;;;5126154;28;20560;-74
2022/03/12 02:22:38;;;;;;;14.70;7.00;;;-0.40;99.90;;;;;;5132900;28;20204;-74
2022/03/12 02:25:07;;;;;;;15.60;6.90;;;-0.50;99.90;;;;;;5128704;27;20225;-74
2022/03/12 02:27:34;;;;;;;17.27;7.77;;;-0.40;99.90;;;;;;5123722;28;20200;-74
2022/03/12 02:30:02;;;;;;;14.23;6.93;;;-0.30;99.90;;;;;;5131659;28;20192;-74
2022/03/12 02:32:29;;;;;;;15.77;7.53;;;-0.40;99.90;;;;;;5124398;28;20201;-74
2022/03/12 02:34:57;;;;;;;15.47;6.77;;;-0.40;99.90;;;;;;5123226;28;20229;-74
2022/03/12 02:37:29;;;;;;;15.90;7.00;;;-0.40;51.60;;;;;;5132113;28;20188;-74
2022/03/12 02:39:57;;;;;;;14.07;6.83;;;-0.50;82.80;;;;;;5131937;28;20241;-74
2022/03/12 02:42:25;;;;;;;14.97;6.43;;;-0.80;99.90;;;;;;5117456;28;20203;-74
2022/03/12 02:44:54;;;;;;;15.03;7.47;;;-1.00;99.90;;;;;;5130881;28;20193;-74
2022/03/12 02:47:23;;;;;;;13.73;6.57;;;-0.80;99.90;;;;;;5114728;28;20204;-74
2022/03/12 02:49:53;;;;;;;16.43;6.80;;;-1.00;99.90;;;;;;5131529;27;20207;-74
2022/03/12 02:52:22;;;;;;;11.43;6.10;;;-1.00;1.00;;;;;;5121367;27;20667;-74
2022/03/12 02:54:50;;;;;;;12.10;5.73;;;-1.00;99.90;;;;;;5134914;27;20204;-74
2022/03/12 02:57:18;;;;;;;13.40;6.40;;;-0.60;1.00;;;;;;5123869;27;20576;-74
2022/03/12 02:59:48;;;;;;;14.00;6.13;;;-0.30;1.00;;;;;;5135426;27;20197;-73
2022/03/12 03:02:14;;;;;;;13.57;6.23;;;-0.10;1.00;;;;;;5134519;27;20646;-73
2022/03/12 03:04:42;;;;;;;13.67;7.07;;;-0.20;1.00;;;;;;5118054;27;20200;-73
2022/03/12 03:07:11;;;;;;;12.47;6.00;;;-0.30;1.00;;;;;;5121125;27;20204;-74
2022/03/12 03:09:39;;;;;;;14.30;7.20;;;-0.40;1.00;;;;;;5135812;27;20261;-73
2022/03/12 03:12:09;;;;;;;14.17;7.00;;;-0.40;1.00;;;;;;5125051;27;20205;-73
2022/03/12 03:14:38;;;;;;;13.20;6.30;;;-0.20;1.00;;;;;;5131712;27;20200;-74
2022/03/12 03:17:07;;;;;;;15.47;7.20;;;-0.50;11.80;;;;;;5134982;27;20196;-73
2022/03/12 03:19:35;;;;;;;15.37;6.97;;;-0.70;99.90;;;;;;5128927;27;20201;-73
2022/03/12 03:22:02;;;;;;;16.30;6.97;;;-0.80;99.90;;;;;;5133503;27;20215;-73
2022/03/12 03:24:29;;;;;;;14.87;6.67;;;-0.80;99.90;;;;;;5134081;27;20630;-73
2022/03/12 03:26:58;;;;;;;13.97;5.90;;;-0.80;22.90;;;;;;5134709;27;20203;-74
2022/03/12 03:29:29;;;;;;;12.70;6.03;;;-0.80;1.00;;;;;;5130384;27;20681;-73
2022/03/12 03:31:56;;;;;;;15.17;6.20;;;-0.80;1.00;;;;;;5124307;27;20674;-73
2022/03/12 03:34:25;;;;;;;12.20;6.00;;;-0.80;1.00;;;;;;5118824;27;20197;-73
2022/03/12 03:36:52;;;;;;;13.27;5.57;;;-0.70;1.00;;;;;;5117176;27;20227;-74
2022/03/12 03:39:20;;;;;;;12.70;6.10;;;-0.70;1.00;;;;;;5120522;27;20203;-74
2022/03/12 03:41:46;;;;;;;10.63;5.40;;;-0.60;1.00;;;;;;5120974;27;20204;-70
2022/03/12 03:44:15;;;;;;;11.10;5.33;;;-0.30;1.00;;;;;;5141372;27;20203;-71
2022/03/12 03:46:42;;;;;;;14.13;5.33;;;-0.10;1.00;;;;;;5128255;27;20224;-70
2022/03/12 03:49:09;;;;;;;13.13;5.97;;;-0.40;1.00;;;;;;5134495;27;20192;-71
2022/03/12 03:51:42;;;;;;;12.80;5.73;;;-0.50;1.00;;;;;;5133773;27;20204;-73
2022/03/12 03:54:09;;;;;;;9.57;5.40;;;-0.50;1.00;;;;;;5123289;27;20196;-73
2022/03/12 03:56:37;;;;;;;11.33;5.40;;;-0.60;1.00;;;;;;5124713;27;20212;-73
2022/03/12 03:59:04;;;;;;;13.90;5.63;;;-0.60;1.00;;;;;;5123097;27;20192;-73
2022/03/12 04:01:32;;;;;;;11.13;5.47;;;-0.60;1.00;;;;;;5119518;27;20212;-74
2022/03/12 04:03:59;;;;;;;14.20;5.67;;;-0.60;1.00;;;;;;5123976;27;20193;-73
2022/03/12 04:06:26;;;;;;;11.17;5.47;;;-0.50;1.00;;;;;;5134558;27;20189;-74
2022/03/12 04:08:54;;;;;;;11.10;5.03;;;-0.30;1.00;;;;;;5126831;27;20288;-74
2022/03/12 04:11:22;;;;;;;10.90;5.80;;;-0.10;1.00;;;;;;5115955;27;20246;-73
2022/03/12 04:13:50;;;;;;;11.20;5.50;;;-0.30;1.00;;;;;;5126426;27;20203;-73
2022/03/12 04:16:18;;;;;;;11.53;5.53;;;-0.50;1.00;;;;;;5128154;27;20690;-73
2022/03/12 04:18:46;;;;;;;13.13;5.53;;;-0.50;1.00;;;;;;5125898;27;20556;-73
2022/03/12 04:21:14;;;;;;;11.83;5.57;;;-0.40;1.00;;;;;;5133295;27;20233;-74
2022/03/12 04:23:41;;;;;;;12.87;5.90;;;-0.50;1.00;;;;;;5133872;27;20204;-73
2022/03/12 04:26:10;;;;;;;11.03;5.27;;;-0.60;1.00;;;;;;5134308;27;20203;-73
2022/03/12 04:28:37;;;;;;;15.73;5.87;;;-0.30;1.00;;;;;;5123680;27;20676;-74
2022/03/12 04:31:06;;;;;;;10.87;5.60;;;0.00;1.00;;;;;;5120373;27;20204;-74
2022/03/12 04:33:33;;;;;;;13.87;6.63;;;-0.20;1.00;;;;;;5133681;27;20207;-73
2022/03/12 04:36:02;;;;;;;10.53;5.37;;;-0.30;1.00;;;;;;5133292;27;20674;-73
2022/03/12 04:38:29;;;;;;;12.37;5.43;;;-0.30;1.00;;;;;;5128974;27;20283;-73
2022/03/12 04:40:57;;;;;;;13.10;5.37;;;-0.10;1.00;;;;;;5134655;27;20283;-74
2022/03/12 04:43:27;;;;;;;10.53;5.83;;;-0.20;1.00;;;;;;5131036;27;20218;-73
2022/03/12 04:45:54;;;;;;;13.87;5.60;;;-0.40;1.00;;;;;;5133857;27;20191;-73
2022/03/12 04:48:23;;;;;;;11.67;5.87;;;-0.30;1.00;;;;;;5121875;27;20309;-73
2022/03/12 04:50:50;;;;;;;12.23;5.33;;;-0.30;1.00;;;;;;5133538;27;20211;-74
2022/03/12 04:53:17;;;;;;;11.27;5.63;;;-0.10;1.00;;;;;;5132642;27;20185;-73
2022/03/12 04:55:45;;;;;;;11.53;5.50;;;-0.30;1.00;;;;;;5131670;27;20579;-73
2022/03/12 04:58:13;;;;;;;10.53;4.50;;;-0.60;1.00;;;;;;5127081;27;20189;-73
2022/03/12 05:00:42;;;;;;;9.50;4.87;;;-0.40;1.00;;;;;;5118186;27;20584;-73
2022/03/12 05:03:11;;;;;;;10.37;4.90;;;-0.20;1.00;;;;;;5124554;27;20599;-73
2022/03/12 05:05:40;;;;;;;11.20;5.87;;;-0.20;1.00;;;;;;5132253;27;20600;-73
2022/03/12 05:08:09;;;;;;;12.00;5.30;;;-0.40;1.00;;;;;;5119083;27;20192;-73
2022/03/12 05:10:36;;;;;;;10.60;5.30;;;-0.60;1.00;;;;;;5116084;27;20559;-74
2022/03/12 05:13:04;;;;;;;12.63;5.60;;;-0.70;1.00;;;;;;5129712;27;20198;-73
2022/03/12 05:15:36;;;;;;;10.30;5.17;;;-0.90;1.00;;;;;;5128903;27;20227;-73
2022/03/12 05:18:06;;;;;;;9.27;4.77;;;-0.80;1.00;;;;;;5115848;27;20219;-73
2022/03/12 05:20:36;;;;;;;10.80;4.73;;;-1.00;1.00;;;;;;5129217;27;20204;-73
2022/03/12 05:23:03;;;;;;;10.37;5.03;;;-1.00;1.00;;;;;;5132422;27;20241;-73
2022/03/12 05:25:32;;;;;;;11.10;5.30;;;-0.80;1.00;;;;;;5128301;27;20627;-73
2022/03/12 05:27:59;;;;;;;10.60;5.07;;;-1.20;1.00;;;;;;5130334;27;20614;-73
2022/03/12 05:30:27;;;;;;;11.40;5.40;;;-1.00;99.90;;;;;;5128906;27;20211;-73
2022/03/12 05:32:54;;;;;;;9.87;4.90;;;-0.90;76.50;;;;;;5131634;27;20196;-74
2022/03/12 05:35:23;;;;;;;11.30;5.47;;;-1.00;55.00;;;;;;5131505;27;20227;-73
2022/03/12 05:37:51;;;;;;;12.60;6.20;;;-0.90;1.00;;;;;;5126190;27;20204;-73
2022/03/12 05:40:19;;;;;;;10.33;4.83;;;-0.90;1.00;;;;;;5132761;27;20207;-70
2022/03/12 05:42:48;;;;;;;10.20;5.00;;;-1.00;99.90;;;;;;5130179;27;20200;-70
2022/03/12 05:45:17;;;;;;;13.07;5.43;;;-1.00;99.90;;;;;;5128533;27;20553;-70
2022/03/12 05:47:44;;;;;;;9.50;4.50;;;-0.80;1.00;;;;;;5122650;27;20212;-70
2022/03/12 05:50:13;;;;;;;12.23;4.80;;;-0.70;1.00;;;;;;5131288;27;20196;-70
2022/03/12 05:52:45;;;;;;;11.20;5.37;;;-0.50;99.90;;;;;;5127485;27;20197;-70
2022/03/12 05:55:12;;;;;;;11.20;5.13;;;-0.60;50.90;;;;;;5133051;27;20629;-70
2022/03/12 05:57:39;;;;;;;9.93;4.83;;;-0.60;24.30;;;;;;5121230;27;20228;-70
2022/03/12 06:00:10;;;;;;;11.80;4.97;;;-0.50;99.90;;;;;;5117955;28;20208;-70
2022/03/12 06:02:37;;;;;;;10.23;4.60;;;-0.60;53.30;;;;;;5122374;27;20283;-70
2022/03/12 06:05:05;;;;;;;13.53;5.20;;;-0.60;99.90;;;;;;5131996;28;20200;-70
2022/03/12 06:07:32;;;;;;;11.83;4.97;;;-0.60;92.20;;;;;;5131974;27;20568;-70
2022/03/12 06:10:00;;;;;;;11.57;4.60;;;-0.50;1.00;;;;;;5126399;27;20213;-70
2022/03/12 06:12:27;;;;;;;10.43;5.30;;;-0.20;1.00;;;;;;5132612;28;20192;-70
2022/03/12 06:14:55;;;;;;;8.13;4.53;;;0.00;1.00;;;;;;5130602;27;20204;-70
2022/03/12 06:17:24;;;;;;;11.93;5.53;;;0.00;99.90;;;;;;5118863;28;20593;-70
2022/03/12 06:19:51;;;;;;;10.50;5.47;;;0.00;1.00;;;;;;5116099;28;20228;-70
2022/03/12 06:22:17;;;;;;;12.33;5.77;;;0.20;1.00;;;;;;5112288;28;20201;-70
2022/03/12 06:24:46;;;;;;;10.10;4.77;;;0.50;1.00;;;;;;5117083;27;20226;-70
2022/03/12 06:27:17;;;;;;;9.83;5.00;;;0.80;1.00;;;;;;5116499;28;20630;-70
2022/03/12 06:29:45;;;;;;;8.57;4.40;;;1.10;1.00;;;;;;5119682;27;20302;-70
2022/03/12 06:32:13;;;;;;;8.50;4.23;;;1.30;1.00;;;;;;5126951;27;20207;-70
2022/03/12 06:34:41;;;;;;;8.60;4.10;;;1.50;1.00;;;;;;5135572;27;20283;-70
2022/03/12 06:37:09;;;;;;;7.50;4.00;;;1.60;1.00;;;;;;5135872;27;20212;-70
2022/03/12 06:39:35;;;;;;;8.20;4.47;;;1.90;1.00;;;;;;5118934;27;20273;-70
2022/03/12 06:42:03;;;;;;;7.67;3.90;;;2.20;99.90;;;;;;5135804;27;20658;-70
2022/03/12 06:44:32;;;;;;;7.20;4.00;;;2.50;99.90;;;;;;5120445;27;20215;-70
2022/03/12 06:47:00;;;;;;;7.23;4.13;;;2.90;99.90;;;;;;5136216;27;20208;-70
2022/03/12 06:49:27;;;;;;;10.60;4.40;;;3.00;99.90;;;;;;5135712;27;20287;-70
2022/03/12 06:51:54;;;;;;;8.57;4.00;;;3.10;99.90;;;;;;5115733;27;20209;-70
2022/03/12 06:54:22;;;;;;;6.47;3.67;;;2.90;99.90;;;;;;5134710;27;20180;-70
2022/03/12 06:56:49;;;;;;;7.37;4.00;;;2.90;99.90;;;;;;5120193;27;20216;-70
2022/03/12 06:59:16;;;;;;;6.60;3.57;;;3.00;99.90;;;;;;5134459;27;20200;-70
2022/03/12 07:01:44;;;;;;;6.43;3.93;;;3.10;99.90;;;;;;5119669;27;20197;-70
2022/03/12 07:04:11;;;;;;;9.13;3.97;;;3.30;99.90;;;;;;5136233;27;20208;-70
2022/03/12 07:06:38;;;;;;;8.80;3.90;;;3.50;99.90;;;;;;5125972;27;20284;-70
2022/03/12 07:09:05;;;;;;;8.07;3.90;;;3.40;99.90;;;;;;5119419;27;20200;-70
2022/03/12 07:11:33;;;;;;;6.87;3.83;;;3.50;99.90;;;;;;5115876;28;20200;-70
2022/03/12 07:14:00;;;;;;;7.17;3.70;;;3.60;99.90;;;;;;5119691;27;20219;-70
2022/03/12 07:16:27;;;;;;;7.97;3.80;;;3.60;99.90;;;;;;5132184;27;20224;-70
2022/03/12 07:18:56;;;;;;;6.47;3.70;;;3.70;99.90;;;;;;5134557;27;20746;-70
2022/03/12 07:21:24;;;;;;;5.80;3.53;;;3.90;99.90;;;;;;5135273;27;20200;-71
2022/03/12 07:23:51;;;;;;;7.27;3.80;;;3.90;99.90;;;;;;5133126;27;20605;-70
2022/03/12 07:26:17;;;;;;;7.00;3.53;;;4.10;99.90;;;;;;5116532;27;20203;-70
2022/03/12 07:28:44;;;;;;;4.77;3.43;;;4.30;99.90;;;;;;5131446;27;20287;-70
2022/03/12 07:31:12;;;;;;;6.47;3.87;;;4.80;99.90;;;;;;5149555;27;20202;-70
2022/03/12 07:33:38;;;;;;;6.57;3.83;;;5.00;99.90;;;;;;5138994;27;20193;-70
2022/03/12 07:36:07;;;;;;;7.53;4.10;;;4.90;99.90;;;;;;5120563;27;20192;-70
2022/03/12 07:38:34;;;;;;;6.60;3.70;;;5.00;99.90;;;;;;5121392;27;20550;-70
2022/03/12 07:41:01;;;;;;;8.27;3.50;;;5.30;99.90;;;;;;5135494;27;20226;-70
2022/03/12 07:43:28;;;;;;;9.50;4.30;;;5.60;99.90;;;;;;5122368;27;20201;-70
2022/03/12 07:45:56;;;;;;;8.73;4.87;;;5.90;99.90;;;;;;5147327;27;20192;-70
2022/03/12 07:48:23;;;;;;;8.77;4.40;;;6.70;99.90;;;;;;5155333;27;20211;-70
2022/03/12 07:50:51;;;;;;;10.33;4.80;;;7.30;99.90;;;;;;5139972;27;20559;-70
2022/03/12 07:53:19;;;;;;;7.13;4.27;;;6.60;99.90;;;;;;5135365;27;20200;-70
2022/03/12 07:55:46;;;;;;;5.80;4.03;;;6.80;99.90;;;;;;5134638;27;20418;-70
2022/03/12 07:58:14;;;;;;;6.17;4.07;;;6.50;99.90;;;;;;5134939;27;20224;-70
2022/03/12 08:00:41;;;;;;;6.77;4.33;;;6.40;99.90;;;;;;5123335;27;20337;-70
2022/03/12 08:03:08;;;;;;;7.97;4.00;;;7.30;99.90;;;;;;5134509;27;20198;-70
2022/03/12 08:05:35;;;;;;;7.00;4.10;;;6.90;99.90;;;;;;5134151;27;20201;-71
2022/03/12 08:08:02;;;;;;;6.30;3.90;;;7.60;99.90;;;;;;5134792;27;20223;-70
2022/03/12 08:11:24;;;;;;;6.83;3.80;;;8.50;99.90;;;;;;5133580;27;20207;-70
2022/03/12 08:13:21;;;;;;;6.63;3.87;;;7.40;99.90;;;;;;5117457;27;20674;-70
2022/03/12 08:15:49;;;;;;;7.13;4.03;;;6.90;99.90;;;;;;5121771;27;20205;-70
2022/03/12 08:18:16;;;;;;;4.87;3.30;;;7.90;99.90;;;;;;5127656;27;20219;-70
2022/03/12 08:20:44;;;;;;;7.60;4.20;;;8.30;99.90;;;;;;5130660;27;20663;-69
2022/03/12 08:23:11;;;;;;;6.00;4.20;;;8.70;99.90;;;;;;5124105;27;20254;-70
2022/03/12 08:25:39;;;;;;;7.10;4.07;;;8.50;99.90;;;;;;5124612;27;20642;-70
2022/03/12 08:28:06;;;;;;;8.13;4.30;;;8.80;99.90;;;;;;5121248;27;20193;-70
2022/03/12 08:30:33;;;;;;;8.53;4.43;;;8.30;99.90;;;;;;5124141;27;20197;-70
2022/03/12 08:33:00;;;;;;;9.07;4.50;;;8.30;99.90;;;;;;5125474;27;20212;-70
2022/03/12 08:35:27;;;;;;;9.97;4.53;;;8.00;99.90;;;;;;5124371;27;20196;-70
2022/03/12 08:37:54;;;;;;;7.00;4.10;;;8.50;99.90;;;;;;5123291;27;20224;-70
2022/03/12 08:40:22;;;;;;;8.10;4.20;;;8.40;99.90;;;;;;5123813;27;20204;-70
2022/03/12 08:42:50;;;;;;;6.10;4.17;;;8.70;99.90;;;;;;5125089;27;20196;-70
2022/03/12 08:45:18;;;;;;;6.80;4.20;;;8.40;99.90;;;;;;5119602;27;20790;-70
2022/03/12 08:47:45;;;;;;;8.73;4.27;;;8.30;99.90;;;;;;5122186;27;20201;-70
2022/03/12 08:50:12;;;;;;;8.00;4.00;;;7.80;99.90;;;;;;5127863;27;20249;-70
2022/03/12 08:52:40;;;;;;;6.80;4.37;;;7.60;99.90;;;;;;5125154;27;20203;-70
2022/03/12 08:55:07;;;;;;;7.97;4.77;;;8.00;99.90;;;;;;5126336;27;20203;-70
2022/03/12 08:57:35;;;;;;;6.70;4.33;;;7.80;99.90;;;;;;5122688;27;20220;-70
2022/03/12 09:00:05;;;;;;;8.10;4.77;;;7.80;99.90;;;;;;5128665;27;20188;-70
2022/03/12 09:02:33;;;;;;;6.87;4.37;;;7.80;99.90;;;;;;5127330;27;20232;-72
2022/03/12 09:05:00;;;;;;;11.93;4.67;;;8.20;99.90;;;;;;5128079;27;20295;-72
2022/03/12 09:07:28;;;;;;;8.60;4.03;;;8.50;99.90;;;;;;5116119;27;20205;-69
2022/03/12 09:09:55;;;;;;;7.00;4.53;;;8.80;99.90;;;;;;5121152;27;20201;-71
2022/03/12 09:12:22;;;;;;;7.20;4.40;;;8.90;99.90;;;;;;5115774;27;20242;-72
2022/03/12 09:14:50;;;;;;;6.70;4.47;;;8.50;99.90;;;;;;5116407;27;20195;-71
2022/03/12 09:17:20;;;;;;;7.77;4.80;;;8.80;99.90;;;;;;5128018;27;20228;-71
2022/03/12 09:19:47;;;;;;;9.97;4.37;;;9.20;99.90;;;;;;5117054;27;20564;-72
2022/03/12 09:22:14;;;;;;;6.90;4.37;;;9.60;99.90;;;;;;5119347;27;20201;-73
2022/03/12 09:24:41;;;;;;;7.97;4.50;;;9.30;99.90;;;;;;5118670;27;20210;-73
2022/03/12 09:27:08;;;;;;;8.27;4.93;;;10.40;99.90;;;;;;5117666;27;20200;-73
2022/03/12 09:29:36;;;;;;;7.90;4.60;;;10.20;99.90;;;;;;5119502;27;20201;-71
2022/03/12 09:32:05;;;;;;;8.97;4.50;;;10.40;99.90;;;;;;5120135;27;20273;-71
2022/03/12 09:34:34;;;;;;;7.60;4.80;;;10.30;99.90;;;;;;5118077;27;20196;-71
2022/03/12 09:37:02;;;;;;;7.23;4.77;;;10.90;99.90;;;;;;5120301;27;20565;-71
2022/03/12 09:39:30;;;;;;;8.83;5.40;;;10.50;99.90;;;;;;5115369;27;20201;-71
2022/03/12 09:41:57;;;;;;;8.60;5.10;;;10.80;99.90;;;;;;5117519;27;20205;-71
2022/03/12 09:44:24;;;;;;;10.07;5.30;;;11.10;99.90;;;;;;5117120;27;20203;-72
2022/03/12 09:46:51;;;;;;;7.03;5.23;;;10.90;99.90;;;;;;5118761;27;20320;-72
2022/03/12 09:49:18;;;;;;;8.13;4.87;;;11.00;99.90;;;;;;5118578;27;20618;-72
2022/03/12 09:51:46;;;;;;;8.13;4.93;;;11.30;99.90;;;;;;5112506;27;20563;-70
2022/03/12 09:54:15;;;;;;;8.80;5.30;;;11.00;99.90;;;;;;5113146;27;20700;-70
2022/03/12 09:56:43;;;;;;;9.00;5.20;;;10.70;99.90;;;;;;5117691;27;20296;-70
2022/03/12 09:59:11;;;;;;;9.10;5.20;;;11.20;99.90;;;;;;5115321;28;20205;-71
2022/03/12 10:01:38;;;;;;;8.90;4.97;;;11.40;99.90;;;;;;5113114;27;20254;-70
2022/03/12 10:04:05;;;;;;;7.40;4.67;;;11.40;99.90;;;;;;5116475;27;20200;-71
2022/03/12 10:06:32;;;;;;;10.13;5.60;;;11.00;99.90;;;;;;5114837;27;20576;-70
2022/03/12 10:09:03;;;;;;;7.90;5.20;;;11.30;99.90;;;;;;5120568;27;20208;-72
2022/03/12 10:11:30;;;;;;;9.77;5.63;;;11.80;99.90;;;;;;5115633;28;20642;-72
2022/03/12 10:13:57;;;;;;;8.07;5.33;;;11.70;99.90;;;;;;5116649;28;20245;-74
2022/03/12 10:16:25;;;;;;;9.10;5.27;;;12.20;99.90;;;;;;5115077;27;20240;-74
2022/03/12 10:18:52;;;;;;;8.87;5.60;;;12.10;99.90;;;;;;5128118;27;20223;-74
2022/03/12 10:21:20;;;;;;;7.20;5.30;;;12.10;99.90;;;;;;5125056;27;20264;-72
2022/03/12 10:23:47;;;;;;;9.77;5.37;;;11.80;99.90;;;;;;5115426;28;20208;-72
2022/03/12 10:26:16;;;;;;;10.60;5.57;;;12.50;99.90;;;;;;5118370;28;20235;-72
2022/03/12 10:28:43;;;;;;;7.87;5.50;;;12.30;99.90;;;;;;5123346;28;20270;-73
2022/03/12 10:31:12;;;;;;;9.27;5.63;;;12.00;99.90;;;;;;5123624;27;20296;-72
2022/03/12 10:33:39;;;;;;;9.93;5.37;;;11.90;99.90;;;;;;5120240;28;20291;-72
2022/03/12 10:36:12;;;;;;;9.77;5.90;;;11.40;99.90;;;;;;5125881;28;20846;-72
2022/03/12 10:38:41;;;;;;;9.13;5.97;;;11.50;99.90;;;;;;5117289;28;20233;-72
2022/03/12 10:41:08;;;;;;;9.60;5.83;;;12.20;99.90;;;;;;5123811;27;20201;-72
2022/03/12 10:43:46;;;;;;;8.07;5.43;;;12.40;99.90;;;;;;5122646;28;20209;-72
2022/03/12 10:46:20;;;;;;;9.47;5.50;;;12.00;99.90;;;;;;5122187;28;20193;-72
2022/03/12 10:48:49;;;;;;;10.30;5.57;;;13.10;99.90;;;;;;5121977;28;20600;-72
2022/03/12 10:51:17;;;;;;;9.23;5.37;;;13.10;99.90;;;;;;5119948;28;20223;-72
2022/03/12 10:53:46;;;;;;;10.37;6.20;;;12.80;99.90;;;;;;5121911;28;20215;-72
2022/03/12 10:56:13;;;;;;;11.83;6.13;;;12.70;99.90;;;;;;5116850;27;20658;-72
2022/03/12 10:58:40;;;;;;;11.63;6.03;;;12.80;99.90;;;;;;5122445;27;20252;-72
2022/03/12 11:01:08;;;;;;;9.43;6.27;;;12.90;99.90;;;;;;5123870;28;20197;-72
2022/03/12 11:03:37;;;;;;;10.37;6.40;;;12.90;99.90;;;;;;5123953;28;20609;-72
2022/03/12 11:06:07;;;;;;;7.83;5.70;;;12.80;99.90;;;;;;5118947;27;20253;-72
2022/03/12 11:08:35;;;;;;;7.73;5.50;;;12.90;99.90;;;;;;5123454;28;20253;-72
2022/03/12 11:11:06;;;;;;;8.03;5.63;;;13.20;99.90;;;;;;5121345;27;20227;-72
2022/03/12 11:13:39;;;;;;;7.63;5.67;;;13.70;99.90;;;;;;5122909;27;20254;-72
2022/03/12 11:16:14;;;;;;;11.47;5.97;;;13.40;99.90;;;;;;5127139;27;20223;-72
2022/03/12 11:18:57;;;;;;;13.00;6.33;;;13.70;99.90;;;;;;5126185;27;20227;-72
2022/03/12 11:21:28;;;;;;;11.53;5.90;;;13.30;99.90;;;;;;5124651;27;20193;-72
2022/03/12 11:23:55;;;;;;;9.83;6.30;;;13.50;99.90;;;;;;5137589;27;20702;-72
2022/03/12 11:26:24;;;;;;;14.27;7.90;;;13.60;99.90;;;;;;5129996;27;20232;-73
2022/03/12 11:28:56;;;;;;;15.17;7.90;;;13.50;99.90;;;;;;5132183;27;20203;-72
2022/03/12 11:44:44;;;;;;;12.73;6.90;;;13.10;99.90;;;;;;5127715;27;20585;-72
2022/03/12 11:47:13;;;;;;;10.07;6.90;;;13.90;99.90;;;;;;5125849;27;20203;-72
2022/03/12 11:49:41;;;;;;;11.97;7.53;;;13.80;99.90;;;;;;5125866;27;20201;-72
2022/03/12 11:52:09;;;;;;;10.87;7.17;;;13.90;99.90;;;;;;5118860;27;20226;-72
2022/03/12 11:54:43;;;;;;;10.20;6.67;;;14.00;99.90;;;;;;5123781;27;20735;-72
2022/03/12 11:57:10;;;;;;;9.63;6.80;;;13.50;99.90;;;;;;5120268;27;20196;-72
2022/03/12 11:59:38;;;;;;;11.63;7.00;;;13.60;99.90;;;;;;5124748;27;20197;-72
2022/03/12 12:02:24;;;;;;;12.90;7.20;;;13.10;99.90;;;;;;5127557;28;20204;-72
2022/03/12 12:04:53;;;;;;;11.73;7.33;;;13.10;99.90;;;;;;5123740;27;20227;-72
2022/03/12 12:07:20;;;;;;;9.73;6.30;;;13.50;99.90;;;;;;5127023;27;20669;-72
2022/03/12 12:09:47;;;;;;;11.23;6.70;;;13.20;99.90;;;;;;5127038;27;20911;-72
2022/03/12 12:12:14;;;;;;;13.33;7.40;;;12.70;99.90;;;;;;5125909;27;20596;-72
2022/03/12 12:14:42;;;;;;;10.70;6.40;;;12.80;99.90;;;;;;5126246;27;20196;-72
2022/03/12 12:17:11;;;;;;;10.30;6.07;;;13.20;99.90;;;;;;5125859;28;20193;-72
2022/03/12 12:19:38;;;;;;;9.50;6.13;;;13.20;99.90;;;;;;5126751;27;20245;-72
2022/03/12 12:22:07;;;;;;;8.90;6.33;;;12.90;99.90;;;;;;5117063;28;20643;-72
2022/03/12 12:24:38;;;;;;;12.70;6.70;;;13.00;99.90;;;;;;5125734;27;20257;-72
2022/03/12 12:27:07;;;;;;;12.40;7.07;;;13.60;99.90;;;;;;5127465;28;20729;-72
2022/03/12 12:29:46;;;;;;;11.53;6.50;;;13.40;99.90;;;;;;5127078;27;20269;-72
2022/03/12 12:32:16;;;;;;;10.30;6.63;;;13.80;99.90;;;;;;5119142;27;20197;-72
2022/03/12 12:35:01;;;;;;;12.03;6.53;;;13.80;99.90;;;;;;5124438;27;20249;-72
2022/03/12 12:38:04;;;;;;;9.60;6.33;;;14.10;99.90;;;;;;5120080;28;20219;-72
2022/03/12 12:40:36;;;;;;;9.40;6.13;;;15.30;99.90;;;;;;5037722;28;20204;-72
2022/03/12 12:43:09;;;;;;;12.97;6.87;;;15.50;99.90;;;;;;5032702;28;20727;-72
2022/03/12 12:45:59;;;;;;;9.97;6.17;;;14.70;99.90;;;;;;5072125;28;20211;-72
2022/03/12 12:48:33;;;;;;;9.23;5.90;;;14.70;99.90;;;;;;5110647;28;20229;-72
2022/03/12 12:51:12;;;;;;;10.90;6.57;;;13.80;99.90;;;;;;5105186;28;20200;-72
2022/03/12 12:53:41;;;;;;;9.00;6.13;;;13.70;99.90;;;;;;5111775;28;20255;-72
2022/03/12 12:56:26;;;;;;;9.20;6.60;;;14.50;99.90;;;;;;5111053;28;20576;-72
2022/03/12 12:59:11;;;;;;;9.73;6.27;;;14.20;99.90;;;;;;5113095;28;20197;-72
2022/03/12 13:01:51;;;;;;;11.13;6.50;;;14.50;99.90;;;;;;5109901;28;20668;-72
2022/03/12 13:04:49;;;;;;;10.73;6.10;;;13.90;99.90;;;;;;5112394;28;20228;-73
2022/03/12 13:07:22;;;;;;;9.97;6.47;;;14.70;99.90;;;;;;5104206;28;20229;-72
2022/03/12 13:10:03;;;;;;;13.70;6.93;;;14.00;99.90;;;;;;5112613;28;20205;-72